Terminal Aerodrome Forecast
Issued by NWS

Home | Current Version | Previous Version | Text Only | Print | Product List | Glossary On
Versions: 1 2 3 4 5 6 7 8 9 10 11 12 13 14 15 16 17 18 19 20 21
240
FTUS41 KBGM 110526
TAFRME
TAF
KRME 110526Z 1106/1206 27011KT 4SM -SN OVC018
      TEMPO 1106/1109 1SM -SN
     FM110900 28010KT 3SM -SN OVC012
     FM111300 29012KT 5SM -SN SCT012 BKN025
     FM120000 29011KT P6SM -SHSN BKN050=

USA.gov is the U.S. government's official web portal to all federal, state and local government web resources and services.